sensor_id;sensor_type;location;lat;lon;timestamp;pressure;altitude;pressure_sealevel;temperature;humidity
77023;BME280;65952;51.440;-2.054;2023-08-31T00:01:02;99750.75;;;14.36;63.45
77023;BME280;65952;51.440;-2.054;2023-08-31T00:03:31;99747.84;;;14.24;63.88
77023;BME280;65952;51.440;-2.054;2023-08-31T00:05:57;99755.31;;;14.22;64.06
77023;BME280;65952;51.440;-2.054;2023-08-31T00:08:22;99750.53;;;14.17;64.17
77023;BME280;65952;51.440;-2.054;2023-08-31T00:10:55;99743.88;;;14.13;64.67
77023;BME280;65952;51.440;-2.054;2023-08-31T00:13:21;99748.03;;;14.09;65.03
77023;BME280;65952;51.440;-2.054;2023-08-31T00:15:46;99744.47;;;14.02;64.75
77023;BME280;65952;51.440;-2.054;2023-08-31T00:18:12;99749.03;;;14.01;65.12
77023;BME280;65952;51.440;-2.054;2023-08-31T00:20:38;99744.25;;;13.96;65.28
77023;BME280;65952;51.440;-2.054;2023-08-31T00:23:03;99736.16;;;13.96;65.33
77023;BME280;65952;51.440;-2.054;2023-08-31T00:25:29;99742.16;;;13.98;65.45
77023;BME280;65952;51.440;-2.054;2023-08-31T00:27:55;99736.59;;;14.07;65.18
77023;BME280;65952;51.440;-2.054;2023-08-31T00:30:21;99726.63;;;14.07;65.04
77023;BME280;65952;51.440;-2.054;2023-08-31T00:32:51;99729.53;;;14.06;65.08
77023;BME280;65952;51.440;-2.054;2023-08-31T00:35:18;99727.88;;;14.05;65.37
77023;BME280;65952;51.440;-2.054;2023-08-31T00:37:44;99732.66;;;14.03;65.15
77023;BME280;65952;51.440;-2.054;2023-08-31T00:40:11;99730.78;;;14.03;65.45
77023;BME280;65952;51.440;-2.054;2023-08-31T00:42:39;99718.72;;;13.92;65.43
77023;BME280;65952;51.440;-2.054;2023-08-31T00:45:05;99732.41;;;13.84;65.78
77023;BME280;65952;51.440;-2.054;2023-08-31T00:47:31;99727.00;;;13.84;65.82
77023;BME280;65952;51.440;-2.054;2023-08-31T00:49:56;99718.69;;;13.79;66.08
77023;BME280;65952;51.440;-2.054;2023-08-31T00:52:23;99719.72;;;13.78;66.18
77023;BME280;65952;51.440;-2.054;2023-08-31T00:54:51;99731.53;;;13.77;66.18
77023;BME280;65952;51.440;-2.054;2023-08-31T00:57:16;99729.28;;;13.80;66.36
77023;BME280;65952;51.440;-2.054;2023-08-31T00:59:42;99724.09;;;13.79;66.34
77023;BME280;65952;51.440;-2.054;2023-08-31T01:02:19;99718.25;;;13.75;66.50
77023;BME280;65952;51.440;-2.054;2023-08-31T01:10:15;99713.28;;;13.72;66.49
77023;BME280;65952;51.440;-2.054;2023-08-31T01:12:44;99710.78;;;13.71;66.67
77023;BME280;65952;51.440;-2.054;2023-08-31T01:15:13;99714.50;;;13.70;66.85
77023;BME280;65952;51.440;-2.054;2023-08-31T01:17:44;99704.34;;;13.72;66.58
77023;BME280;65952;51.440;-2.054;2023-08-31T01:20:14;99716.38;;;13.76;66.85
77023;BME280;65952;51.440;-2.054;2023-08-31T01:22:55;99723.25;;;13.78;66.54
77023;BME280;65952;51.440;-2.054;2023-08-31T01:25:21;99716.59;;;13.81;66.60
77023;BME280;65952;51.440;-2.054;2023-08-31T01:27:46;99724.94;;;13.86;66.11
77023;BME280;65952;51.440;-2.054;2023-08-31T01:30:12;99730.09;;;13.81;66.69
77023;BME280;65952;51.440;-2.054;2023-08-31T01:32:43;99722.22;;;13.79;66.47
77023;BME280;65952;51.440;-2.054;2023-08-31T01:35:10;99717.88;;;13.85;66.34
77023;BME280;65952;51.440;-2.054;2023-08-31T01:38:03;99711.66;;;13.91;66.39
77023;BME280;65952;51.440;-2.054;2023-08-31T01:41:16;99722.47;;;13.91;66.08
77023;BME280;65952;51.440;-2.054;2023-08-31T01:43:22;99719.75;;;13.91;66.43
77023;BME280;65952;51.440;-2.054;2023-08-31T01:45:48;99715.41;;;13.90;66.28
77023;BME280;65952;51.440;-2.054;2023-08-31T01:48:14;99706.28;;;13.91;66.50
77023;BME280;65952;51.440;-2.054;2023-08-31T01:50:40;99703.38;;;14.00;66.20
77023;BME280;65952;51.440;-2.054;2023-08-31T01:53:05;99700.06;;;13.97;66.55
77023;BME280;65952;51.440;-2.054;2023-08-31T01:55:32;99702.72;;;13.91;66.67
77023;BME280;65952;51.440;-2.054;2023-08-31T01:57:58;99685.94;;;13.89;66.87
77023;BME280;65952;51.440;-2.054;2023-08-31T02:00:24;99684.06;;;13.89;66.98
77023;BME280;65952;51.440;-2.054;2023-08-31T02:02:50;99690.47;;;13.88;66.98
77023;BME280;65952;51.440;-2.054;2023-08-31T02:05:16;99677.41;;;13.85;66.86
77023;BME280;65952;51.440;-2.054;2023-08-31T02:07:41;99676.56;;;13.85;67.13
77023;BME280;65952;51.440;-2.054;2023-08-31T02:10:07;99685.06;;;13.88;66.79
77023;BME280;65952;51.440;-2.054;2023-08-31T02:12:33;99683.22;;;13.89;66.80
77023;BME280;65952;51.440;-2.054;2023-08-31T02:14:58;99692.78;;;13.91;66.80
77023;BME280;65952;51.440;-2.054;2023-08-31T02:17:24;99680.75;;;13.94;66.42
77023;BME280;65952;51.440;-2.054;2023-08-31T02:19:50;99678.03;;;13.94;66.61
77023;BME280;65952;51.440;-2.054;2023-08-31T02:22:16;99678.25;;;13.92;66.78
77023;BME280;65952;51.440;-2.054;2023-08-31T02:24:41;99667.66;;;13.91;66.96
77023;BME280;65952;51.440;-2.054;2023-08-31T02:27:07;99672.22;;;13.90;66.97
77023;BME280;65952;51.440;-2.054;2023-08-31T02:29:32;99667.66;;;13.91;67.04
77023;BME280;65952;51.440;-2.054;2023-08-31T02:31:58;99667.03;;;13.89;67.00
77023;BME280;65952;51.440;-2.054;2023-08-31T02:34:23;99670.97;;;13.93;67.21
77023;BME280;65952;51.440;-2.054;2023-08-31T02:36:48;99676.38;;;13.93;67.40
77023;BME280;65952;51.440;-2.054;2023-08-31T02:39:14;99670.56;;;13.96;67.16
77023;BME280;65952;51.440;-2.054;2023-08-31T02:41:41;99676.81;;;13.96;67.39
77023;BME280;65952;51.440;-2.054;2023-08-31T02:44:06;99670.56;;;13.96;67.17
77023;BME280;65952;51.440;-2.054;2023-08-31T02:46:31;99661.44;;;13.97;67.47
77023;BME280;65952;51.440;-2.054;2023-08-31T02:48:57;99672.22;;;13.97;67.37
77023;BME280;65952;51.440;-2.054;2023-08-31T02:51:22;99669.31;;;13.98;67.47
77023;BME280;65952;51.440;-2.054;2023-08-31T02:53:47;99668.91;;;14.02;67.47
77023;BME280;65952;51.440;-2.054;2023-08-31T02:56:13;99658.13;;;14.02;67.72
77023;BME280;65952;51.440;-2.054;2023-08-31T02:58:39;99656.88;;;14.11;66.99
77023;BME280;65952;51.440;-2.054;2023-08-31T03:01:12;99647.97;;;14.04;67.31
77023;BME280;65952;51.440;-2.054;2023-08-31T03:03:38;99643.59;;;14.03;67.31
77023;BME280;65952;51.440;-2.054;2023-08-31T03:06:06;99647.53;;;14.00;67.49
77023;BME280;65952;51.440;-2.054;2023-08-31T03:08:33;99652.72;;;13.95;67.49
77023;BME280;65952;51.440;-2.054;2023-08-31T03:10:58;99648.34;;;14.01;67.59
77023;BME280;65952;51.440;-2.054;2023-08-31T03:13:24;99645.44;;;13.95;67.50
77023;BME280;65952;51.440;-2.054;2023-08-31T03:15:49;99651.03;;;13.87;68.18
77023;BME280;65952;51.440;-2.054;2023-08-31T03:18:15;99656.84;;;13.84;67.82
77023;BME280;65952;51.440;-2.054;2023-08-31T03:20:40;99657.47;;;13.79;68.00
77023;BME280;65952;51.440;-2.054;2023-08-31T03:23:05;99664.75;;;13.79;68.24
77023;BME280;65952;51.440;-2.054;2023-08-31T03:25:31;99658.91;;;13.75;68.11
77023;BME280;65952;51.440;-2.054;2023-08-31T03:27:56;99656.44;;;13.74;68.27
77023;BME280;65952;51.440;-2.054;2023-08-31T03:30:22;99653.72;;;13.74;68.46
77023;BME280;65952;51.440;-2.054;2023-08-31T03:32:47;99656.00;;;13.77;68.30
77023;BME280;65952;51.440;-2.054;2023-08-31T03:35:13;99652.06;;;13.73;68.41
77023;BME280;65952;51.440;-2.054;2023-08-31T03:37:38;99653.72;;;13.74;68.87
77023;BME280;65952;51.440;-2.054;2023-08-31T03:40:04;99660.78;;;13.81;68.42
77023;BME280;65952;51.440;-2.054;2023-08-31T03:42:31;99660.78;;;13.88;68.39
77023;BME280;65952;51.440;-2.054;2023-08-31T03:44:57;99658.72;;;13.84;68.28
77023;BME280;65952;51.440;-2.054;2023-08-31T03:47:22;99663.06;;;13.78;68.33
77023;BME280;65952;51.440;-2.054;2023-08-31T03:49:47;99653.72;;;13.74;68.52
77023;BME280;65952;51.440;-2.054;2023-08-31T03:52:13;99646.88;;;13.71;68.84
77023;BME280;65952;51.440;-2.054;2023-08-31T03:54:38;99657.47;;;13.73;68.73
77023;BME280;65952;51.440;-2.054;2023-08-31T03:57:04;99663.50;;;13.75;68.78
77023;BME280;65952;51.440;-2.054;2023-08-31T03:59:29;99659.72;;;13.76;69.01
77023;BME280;65952;51.440;-2.054;2023-08-31T04:01:55;99656.00;;;13.77;69.19
77023;BME280;65952;51.440;-2.054;2023-08-31T04:04:20;99652.50;;;13.83;69.06
77023;BME280;65952;51.440;-2.054;2023-08-31T04:06:46;99666.63;;;13.92;68.84
77023;BME280;65952;51.440;-2.054;2023-08-31T04:09:11;99658.94;;;13.89;68.91
77023;BME280;65952;51.440;-2.054;2023-08-31T04:11:37;99660.78;;;13.88;68.75
77023;BME280;65952;51.440;-2.054;2023-08-31T04:14:02;99655.63;;;14.00;68.34
77023;BME280;65952;51.440;-2.054;2023-08-31T04:16:28;99652.72;;;14.02;68.23
77023;BME280;65952;51.440;-2.054;2023-08-31T04:18:55;99655.41;;;14.02;68.11
77023;BME280;65952;51.440;-2.054;2023-08-31T04:21:20;99655.22;;;13.96;68.01
77023;BME280;65952;51.440;-2.054;2023-08-31T04:23:45;99658.09;;;13.88;68.17
77023;BME280;65952;51.440;-2.054;2023-08-31T04:26:12;99660.78;;;13.81;67.67
77023;BME280;65952;51.440;-2.054;2023-08-31T04:28:39;99658.69;;;13.70;68.10
77023;BME280;65952;51.440;-2.054;2023-08-31T04:31:05;99663.66;;;13.67;68.84
77023;BME280;65952;51.440;-2.054;2023-08-31T04:33:34;99668.44;;;13.64;68.67
77023;BME280;65952;51.440;-2.054;2023-08-31T04:35:59;99671.56;;;13.68;68.83
77023;BME280;65952;51.440;-2.054;2023-08-31T04:38:24;99672.19;;;13.70;68.99
77023;BME280;65952;51.440;-2.054;2023-08-31T04:40:50;99663.88;;;13.72;69.05
77023;BME280;65952;51.440;-2.054;2023-08-31T04:43:15;99663.50;;;13.75;69.17
77023;BME280;65952;51.440;-2.054;2023-08-31T04:45:40;99668.47;;;13.78;69.06
77023;BME280;65952;51.440;-2.054;2023-08-31T04:48:06;99669.53;;;13.84;69.08
77023;BME280;65952;51.440;-2.054;2023-08-31T04:50:31;99678.44;;;13.91;68.84
77023;BME280;65952;51.440;-2.054;2023-08-31T04:52:57;99677.00;;;14.02;68.74
77023;BME280;65952;51.440;-2.054;2023-08-31T04:55:23;99665.19;;;14.03;68.57
77023;BME280;65952;51.440;-2.054;2023-08-31T04:57:48;99669.56;;;14.04;68.26
77023;BME280;65952;51.440;-2.054;2023-08-31T05:00:14;99665.59;;;14.06;68.22
77023;BME280;65952;51.440;-2.054;2023-08-31T05:02:39;99658.97;;;14.09;68.15
77023;BME280;65952;51.440;-2.054;2023-08-31T05:05:05;99655.41;;;14.08;68.27
77023;BME280;65952;51.440;-2.054;2023-08-31T05:07:31;99654.16;;;14.11;68.03
77023;BME280;65952;51.440;-2.054;2023-08-31T05:09:56;99649.41;;;14.13;67.94
77023;BME280;65952;51.440;-2.054;2023-08-31T05:12:22;99645.44;;;14.22;67.44
77023;BME280;65952;51.440;-2.054;2023-08-31T05:14:47;99654.38;;;14.23;67.48
77023;BME280;65952;51.440;-2.054;2023-08-31T05:17:13;99654.16;;;14.11;67.68
77023;BME280;65952;51.440;-2.054;2023-08-31T05:19:38;99655.19;;;14.10;67.67
77023;BME280;65952;51.440;-2.054;2023-08-31T05:22:03;99659.56;;;14.11;67.59
77023;BME280;65952;51.440;-2.054;2023-08-31T05:24:29;99658.97;;;14.09;67.79
77023;BME280;65952;51.440;-2.054;2023-08-31T05:26:55;99656.47;;;14.14;67.67
77023;BME280;65952;51.440;-2.054;2023-08-31T05:29:20;99654.19;;;14.18;67.63
77023;BME280;65952;51.440;-2.054;2023-08-31T05:31:45;99651.69;;;14.23;67.39
77023;BME280;65952;51.440;-2.054;2023-08-31T05:34:15;99655.22;;;14.23;67.51
77023;BME280;65952;51.440;-2.054;2023-08-31T05:36:41;99650.22;;;14.27;67.28
77023;BME280;65952;51.440;-2.054;2023-08-31T05:39:06;99642.31;;;14.32;67.16
77023;BME280;65952;51.440;-2.054;2023-08-31T05:41:33;99641.91;;;14.28;67.21
77023;BME280;65952;51.440;-2.054;2023-08-31T05:43:58;99644.59;;;14.28;67.44
77023;BME280;65952;51.440;-2.054;2023-08-31T05:46:24;99645.88;;;14.33;67.43
77023;BME280;65952;51.440;-2.054;2023-08-31T05:48:49;99642.09;;;14.34;67.02
77023;BME280;65952;51.440;-2.054;2023-08-31T05:51:14;99647.94;;;14.30;67.26
77023;BME280;65952;51.440;-2.054;2023-08-31T05:53:40;99646.28;;;14.29;67.30
77023;BME280;65952;51.440;-2.054;2023-08-31T05:56:05;99656.47;;;14.34;67.56
77023;BME280;65952;51.440;-2.054;2023-08-31T05:58:35;99650.03;;;14.35;67.13
77023;BME280;65952;51.440;-2.054;2023-08-31T06:01:05;99651.25;;;14.39;67.53
77023;BME280;65952;51.440;-2.054;2023-08-31T06:03:31;99647.72;;;14.45;67.09
77023;BME280;65952;51.440;-2.054;2023-08-31T06:05:57;99648.53;;;14.46;67.19
77023;BME280;65952;51.440;-2.054;2023-08-31T06:08:23;99646.25;;;14.50;67.36
77023;BME280;65952;51.440;-2.054;2023-08-31T06:10:49;99646.22;;;14.56;67.37
77023;BME280;65952;51.440;-2.054;2023-08-31T06:13:15;99648.31;;;14.61;67.10
77023;BME280;65952;51.440;-2.054;2023-08-31T06:15:40;99647.72;;;14.66;67.35
77023;BME280;65952;51.440;-2.054;2023-08-31T06:18:06;99647.06;;;14.70;67.09
77023;BME280;65952;51.440;-2.054;2023-08-31T06:20:31;99648.09;;;14.76;66.92
77023;BME280;65952;51.440;-2.054;2023-08-31T06:22:57;99648.28;;;14.81;67.38
77023;BME280;65952;51.440;-2.054;2023-08-31T06:25:23;99652.44;;;14.84;67.39
77023;BME280;65952;51.440;-2.054;2023-08-31T06:27:48;99658.03;;;14.89;67.31
77023;BME280;65952;51.440;-2.054;2023-08-31T06:30:14;99655.75;;;14.92;66.90
77023;BME280;65952;51.440;-2.054;2023-08-31T06:32:43;99656.78;;;14.91;67.13
77023;BME280;65952;51.440;-2.054;2023-08-31T06:35:10;99657.22;;;14.88;67.23
77023;BME280;65952;51.440;-2.054;2023-08-31T06:37:36;99656.78;;;14.91;67.00
77023;BME280;65952;51.440;-2.054;2023-08-31T06:40:01;99666.78;;;14.91;67.29
77023;BME280;65952;51.440;-2.054;2023-08-31T06:42:26;99659.66;;;14.97;67.32
77023;BME280;65952;51.440;-2.054;2023-08-31T06:44:52;99665.50;;;15.00;67.18
77023;BME280;65952;51.440;-2.054;2023-08-31T06:47:17;99672.78;;;15.00;67.02
77023;BME280;65952;51.440;-2.054;2023-08-31T06:49:43;99668.38;;;15.05;67.14
77023;BME280;65952;51.440;-2.054;2023-08-31T06:52:08;99669.22;;;15.06;67.11
77023;BME280;65952;51.440;-2.054;2023-08-31T06:54:34;99673.38;;;15.08;67.48
77023;BME280;65952;51.440;-2.054;2023-08-31T06:56:59;99665.63;;;15.19;67.04
77023;BME280;65952;51.440;-2.054;2023-08-31T06:59:25;99667.72;;;15.23;66.71
77023;BME280;65952;51.440;-2.054;2023-08-31T07:01:50;99673.53;;;15.27;67.00
77023;BME280;65952;51.440;-2.054;2023-08-31T07:04:15;99669.09;;;15.33;66.96
77023;BME280;65952;51.440;-2.054;2023-08-31T07:06:41;99667.22;;;15.40;66.73
77023;BME280;65952;51.440;-2.054;2023-08-31T07:09:06;99663.88;;;15.38;66.87
77023;BME280;65952;51.440;-2.054;2023-08-31T07:11:33;99671.19;;;15.37;66.61
77023;BME280;65952;51.440;-2.054;2023-08-31T07:13:58;99666.59;;;15.38;66.45
77023;BME280;65952;51.440;-2.054;2023-08-31T07:16:24;99667.22;;;15.40;66.62
77023;BME280;65952;51.440;-2.054;2023-08-31T07:18:50;99664.47;;;15.47;66.20
77023;BME280;65952;51.440;-2.054;2023-08-31T07:21:18;99670.72;;;15.40;66.52
77023;BME280;65952;51.440;-2.054;2023-08-31T07:23:44;99681.13;;;15.43;66.58
77023;BME280;65952;51.440;-2.054;2023-08-31T07:26:10;99675.06;;;15.48;66.30
77023;BME280;65952;51.440;-2.054;2023-08-31T07:28:35;99680.91;;;15.45;66.29
77023;BME280;65952;51.440;-2.054;2023-08-31T07:31:04;99675.69;;;15.50;66.10
77023;BME280;65952;51.440;-2.054;2023-08-31T07:33:31;99670.91;;;15.52;66.00
77023;BME280;65952;51.440;-2.054;2023-08-31T07:35:57;99670.44;;;15.55;65.95
77023;BME280;65952;51.440;-2.054;2023-08-31T07:38:23;99676.88;;;15.61;65.65
77023;BME280;65952;51.440;-2.054;2023-08-31T07:40:49;99668.97;;;15.59;66.00
77023;BME280;65952;51.440;-2.054;2023-08-31T07:43:14;99669.16;;;15.65;66.00
77023;BME280;65952;51.440;-2.054;2023-08-31T07:45:39;99672.91;;;15.64;65.79
77023;BME280;65952;51.440;-2.054;2023-08-31T07:48:05;99668.91;;;15.73;65.88
77023;BME280;65952;51.440;-2.054;2023-08-31T07:50:32;99663.47;;;15.73;66.05
77023;BME280;65952;51.440;-2.054;2023-08-31T07:52:58;99666.78;;;15.82;65.68
77023;BME280;65952;51.440;-2.054;2023-08-31T07:55:23;99658.19;;;15.91;65.35
77023;BME280;65952;51.440;-2.054;2023-08-31T07:57:48;99653.81;;;15.90;65.52
77023;BME280;65952;51.440;-2.054;2023-08-31T08:00:14;99647.59;;;15.90;65.78
77023;BME280;65952;51.440;-2.054;2023-08-31T08:02:40;99650.28;;;15.90;66.08
77023;BME280;65952;51.440;-2.054;2023-08-31T08:05:06;99652.16;;;15.89;66.04
77023;BME280;65952;51.440;-2.054;2023-08-31T08:07:31;99649.22;;;15.91;66.38
77023;BME280;65952;51.440;-2.054;2023-08-31T08:09:57;99655.91;;;15.88;66.75
77023;BME280;65952;51.440;-2.054;2023-08-31T08:12:22;99646.16;;;15.87;66.60
77023;BME280;65952;51.440;-2.054;2023-08-31T08:14:48;99647.84;;;15.82;67.25
77023;BME280;65952;51.440;-2.054;2023-08-31T08:17:14;99658.25;;;15.78;67.43
77023;BME280;65952;51.440;-2.054;2023-08-31T08:19:39;99653.03;;;15.83;67.33
77023;BME280;65952;51.440;-2.054;2023-08-31T08:22:04;99650.75;;;15.80;67.58
77023;BME280;65952;51.440;-2.054;2023-08-31T08:24:30;99653.88;;;15.77;67.83
77023;BME280;65952;51.440;-2.054;2023-08-31T08:26:55;99648.63;;;15.89;67.55
77023;BME280;65952;51.440;-2.054;2023-08-31T08:29:20;99649.84;;;15.93;67.37
77023;BME280;65952;51.440;-2.054;2023-08-31T08:31:46;99653.13;;;16.02;67.20
77023;BME280;65952;51.440;-2.054;2023-08-31T08:34:11;99653.03;;;16.08;67.01
77023;BME280;65952;51.440;-2.054;2023-08-31T08:36:37;99651.19;;;16.09;66.23
77023;BME280;65952;51.440;-2.054;2023-08-31T08:39:02;99653.91;;;16.09;65.54
77023;BME280;65952;51.440;-2.054;2023-08-31T08:41:29;99650.50;;;16.14;65.37
77023;BME280;65952;51.440;-2.054;2023-08-31T08:43:56;99647.78;;;16.14;65.84
77023;BME280;65952;51.440;-2.054;2023-08-31T08:46:25;99646.03;;;16.26;65.80
77023;BME280;65952;51.440;-2.054;2023-08-31T08:48:50;99644.91;;;16.34;65.07
77023;BME280;65952;51.440;-2.054;2023-08-31T08:51:16;99644.72;;;16.35;65.72
77023;BME280;65952;51.440;-2.054;2023-08-31T08:53:43;99641.44;;;16.52;64.79
77023;BME280;65952;51.440;-2.054;2023-08-31T08:56:08;99643.16;;;16.65;64.36
77023;BME280;65952;51.440;-2.054;2023-08-31T08:58:33;99651.16;;;16.78;63.77
77023;BME280;65952;51.440;-2.054;2023-08-31T09:00:59;99644.16;;;16.89;63.53
77023;BME280;65952;51.440;-2.054;2023-08-31T09:03:25;99649.56;;;16.89;63.15
77023;BME280;65952;51.440;-2.054;2023-08-31T09:05:50;99645.56;;;16.98;63.35
77023;BME280;65952;51.440;-2.054;2023-08-31T09:08:17;99645.69;;;17.03;63.26
77023;BME280;65952;51.440;-2.054;2023-08-31T09:10:43;99644.28;;;17.01;63.18
77023;BME280;65952;51.440;-2.054;2023-08-31T09:13:13;99648.75;;;16.88;63.13
77023;BME280;65952;51.440;-2.054;2023-08-31T09:15:45;99640.28;;;17.03;63.14
77023;BME280;65952;51.440;-2.054;2023-08-31T09:18:31;99640.41;;;17.09;63.00
77023;BME280;65952;51.440;-2.054;2023-08-31T09:20:57;99642.47;;;17.13;62.54
77023;BME280;65952;51.440;-2.054;2023-08-31T09:23:23;99646.22;;;17.12;62.77
77023;BME280;65952;51.440;-2.054;2023-08-31T09:25:50;99643.75;;;17.11;63.01
77023;BME280;65952;51.440;-2.054;2023-08-31T09:28:20;99641.38;;;17.14;62.53
77023;BME280;65952;51.440;-2.054;2023-08-31T09:30:47;99631.38;;;17.15;63.09
77023;BME280;65952;51.440;-2.054;2023-08-31T09:33:14;99639.69;;;17.32;62.91
77023;BME280;65952;51.440;-2.054;2023-08-31T09:35:51;99635.06;;;17.51;62.35
77023;BME280;65952;51.440;-2.054;2023-08-31T09:38:18;99634.13;;;17.57;61.65
77023;BME280;65952;51.440;-2.054;2023-08-31T09:40:43;99631.34;;;17.64;61.86
77023;BME280;65952;51.440;-2.054;2023-08-31T09:43:09;99624.00;;;17.64;62.02
77023;BME280;65952;51.440;-2.054;2023-08-31T09:45:35;99620.25;;;17.77;61.71
77023;BME280;65952;51.440;-2.054;2023-08-31T09:48:03;99617.47;;;17.84;61.07
77023;BME280;65952;51.440;-2.054;2023-08-31T09:50:30;99631.75;;;17.91;60.08
77023;BME280;65952;51.440;-2.054;2023-08-31T09:53:03;99624.75;;;17.71;59.46
77023;BME280;65952;51.440;-2.054;2023-08-31T09:55:30;99629.34;;;17.71;59.71
77023;BME280;65952;51.440;-2.054;2023-08-31T09:57:57;99626.31;;;17.49;60.22
77023;BME280;65952;51.440;-2.054;2023-08-31T10:00:27;99623.72;;;17.42;60.21
77023;BME280;65952;51.440;-2.054;2023-08-31T10:03:00;99626.59;;;17.59;60.78
77023;BME280;65952;51.440;-2.054;2023-08-31T10:05:26;99615.44;;;17.79;60.48
77023;BME280;65952;51.440;-2.054;2023-08-31T10:07:52;99621.59;;;17.86;60.47
77023;BME280;65952;51.440;-2.054;2023-08-31T10:10:18;99620.50;;;17.76;60.53
77023;BME280;65952;51.440;-2.054;2023-08-31T10:12:45;99621.47;;;17.81;60.38
77023;BME280;65952;51.440;-2.054;2023-08-31T10:15:12;99615.47;;;17.91;59.95
77023;BME280;65952;51.440;-2.054;2023-08-31T10:17:39;99619.13;;;17.85;59.60
77023;BME280;65952;51.440;-2.054;2023-08-31T10:20:07;99611.91;;;17.79;60.49
77023;BME280;65952;51.440;-2.054;2023-08-31T10:22:33;99613.16;;;17.64;61.24
77023;BME280;65952;51.440;-2.054;2023-08-31T10:25:04;99606.09;;;17.75;61.65
77023;BME280;65952;51.440;-2.054;2023-08-31T10:27:43;99598.41;;;17.72;61.62
77023;BME280;65952;51.440;-2.054;2023-08-31T10:30:15;99605.91;;;17.89;61.05
77023;BME280;65952;51.440;-2.054;2023-08-31T10:32:40;99602.53;;;18.05;60.03
77023;BME280;65952;51.440;-2.054;2023-08-31T10:35:08;99601.69;;;18.28;60.58
77023;BME280;65952;51.440;-2.054;2023-08-31T10:37:34;99597.56;;;18.49;60.40
77023;BME280;65952;51.440;-2.054;2023-08-31T10:40:12;99601.94;;;18.27;60.78
77023;BME280;65952;51.440;-2.054;2023-08-31T10:42:47;99599.69;;;18.00;61.16
77023;BME280;65952;51.440;-2.054;2023-08-31T10:45:43;99591.78;;;18.10;61.33
77023;BME280;65952;51.440;-2.054;2023-08-31T10:48:08;99592.03;;;18.09;61.69
77023;BME280;65952;51.440;-2.054;2023-08-31T10:50:41;99594.38;;;18.17;61.75
77023;BME280;65952;51.440;-2.054;2023-08-31T10:53:09;99588.81;;;18.12;62.01
77023;BME280;65952;51.440;-2.054;2023-08-31T10:55:52;99589.69;;;17.70;62.74
77023;BME280;65952;51.440;-2.054;2023-08-31T10:58:18;99583.06;;;17.66;63.03
77023;BME280;65952;51.440;-2.054;2023-08-31T11:00:53;99584.69;;;17.55;63.67
77023;BME280;65952;51.440;-2.054;2023-08-31T11:03:21;99586.00;;;17.64;63.91
77023;BME280;65952;51.440;-2.054;2023-08-31T11:05:52;99579.28;;;17.67;63.73
77023;BME280;65952;51.440;-2.054;2023-08-31T11:08:22;99581.50;;;17.58;63.27
77023;BME280;65952;51.440;-2.054;2023-08-31T11:10:48;99578.38;;;17.31;64.59
77023;BME280;65952;51.440;-2.054;2023-08-31T11:13:20;99582.22;;;17.53;63.90
77023;BME280;65952;51.440;-2.054;2023-08-31T11:15:48;99581.09;;;17.85;63.07
77023;BME280;65952;51.440;-2.054;2023-08-31T11:18:13;99579.84;;;17.99;62.95
77023;BME280;65952;51.440;-2.054;2023-08-31T11:20:42;99577.38;;;17.98;63.03
77023;BME280;65952;51.440;-2.054;2023-08-31T11:23:07;99576.38;;;17.92;63.18
77023;BME280;65952;51.440;-2.054;2023-08-31T11:25:33;99570.13;;;17.92;63.60
77023;BME280;65952;51.440;-2.054;2023-08-31T11:28:00;99574.66;;;17.98;63.70
77023;BME280;65952;51.440;-2.054;2023-08-31T11:30:28;99569.13;;;18.16;63.82
77023;BME280;65952;51.440;-2.054;2023-08-31T11:32:54;99565.19;;;18.36;62.99
77023;BME280;65952;51.440;-2.054;2023-08-31T11:35:22;99573.81;;;18.33;63.29
77023;BME280;65952;51.440;-2.054;2023-08-31T11:37:52;99572.41;;;18.30;63.38
77023;BME280;65952;51.440;-2.054;2023-08-31T11:40:18;99572.03;;;18.39;63.14
77023;BME280;65952;51.440;-2.054;2023-08-31T11:42:44;99570.88;;;18.23;63.48
77023;BME280;65952;51.440;-2.054;2023-08-31T11:45:11;99564.50;;;18.29;64.08
77023;BME280;65952;51.440;-2.054;2023-08-31T11:47:37;99564.34;;;18.24;64.09
77023;BME280;65952;51.440;-2.054;2023-08-31T11:50:05;99564.84;;;18.44;63.64
77023;BME280;65952;51.440;-2.054;2023-08-31T11:52:31;99566.94;;;18.42;63.31
77023;BME280;65952;51.440;-2.054;2023-08-31T11:54:57;99561.63;;;18.47;62.96
77023;BME280;65952;51.440;-2.054;2023-08-31T11:57:26;99564.56;;;18.58;62.86
77023;BME280;65952;51.440;-2.054;2023-08-31T11:59:53;99562.34;;;18.55;63.72
77023;BME280;65952;51.440;-2.054;2023-08-31T12:02:20;99558.91;;;18.59;64.00
77023;BME280;65952;51.440;-2.054;2023-08-31T12:04:46;99554.38;;;18.65;63.60
77023;BME280;65952;51.440;-2.054;2023-08-31T12:07:16;99557.94;;;18.65;63.09
77023;BME280;65952;51.440;-2.054;2023-08-31T12:09:42;99565.81;;;18.79;63.36
77023;BME280;65952;51.440;-2.054;2023-08-31T12:12:10;99555.63;;;18.86;62.78
77023;BME280;65952;51.440;-2.054;2023-08-31T12:14:37;99561.69;;;18.76;63.06
77023;BME280;65952;51.440;-2.054;2023-08-31T12:17:06;99565.25;;;18.77;63.27
77023;BME280;65952;51.440;-2.054;2023-08-31T12:19:33;99559.44;;;18.97;62.64
77023;BME280;65952;51.440;-2.054;2023-08-31T12:22:01;99555.28;;;19.23;62.10
77023;BME280;65952;51.440;-2.054;2023-08-31T12:24:26;99550.28;;;19.32;62.11
77023;BME280;65952;51.440;-2.054;2023-08-31T12:26:52;99556.19;;;19.29;62.27
77023;BME280;65952;51.440;-2.054;2023-08-31T12:29:23;99551.00;;;18.98;62.45
77023;BME280;65952;51.440;-2.054;2023-08-31T12:31:50;99553.16;;;18.84;62.77
77023;BME280;65952;51.440;-2.054;2023-08-31T12:34:15;99548.53;;;18.85;63.60
77023;BME280;65952;51.440;-2.054;2023-08-31T12:36:41;99554.09;;;19.02;63.54
77023;BME280;65952;51.440;-2.054;2023-08-31T12:39:07;99554.19;;;19.07;63.53
77023;BME280;65952;51.440;-2.054;2023-08-31T12:41:35;99555.53;;;19.22;63.50
77023;BME280;65952;51.440;-2.054;2023-08-31T12:44:01;99559.13;;;19.10;62.92
77023;BME280;65952;51.440;-2.054;2023-08-31T12:46:28;99544.34;;;19.06;62.65
77023;BME280;65952;51.440;-2.054;2023-08-31T12:48:53;99549.88;;;19.11;63.21
77023;BME280;65952;51.440;-2.054;2023-08-31T12:51:19;99550.44;;;18.84;63.74
77023;BME280;65952;51.440;-2.054;2023-08-31T12:53:44;99540.19;;;18.75;64.35